Time;durP1;ratioP1;P1;durP2;ratioP2;P2;SDS_P1;SDS_P2;PMS_P1;PMS_P2;Temp;Humidity;BMP_temperature;BMP_pressure;BME280_temperature;BME280_humidity;BME280_pressure;Samples;Min_cycle;Max_cycle;Signal;HPM_P1;HPM_P2
2023/09/22 00:02:03;;;;;;;18.50;11.80;;;15.50;99.90;;;;;;4993042;28;20026;-85
2023/09/22 00:04:29;;;;;;;16.73;11.60;;;15.30;99.90;;;;;;4994702;28;20053;-85
2023/09/22 00:06:55;;;;;;;14.68;11.07;;;15.30;99.90;;;;;;4994482;28;20033;-88
2023/09/22 00:09:21;;;;;;;14.82;11.50;;;15.20;99.90;;;;;;4994472;28;20401;-84
2023/09/22 00:11:46;;;;;;;15.45;11.48;;;15.10;99.90;;;;;;4994133;28;20089;-88
2023/09/22 00:14:12;;;;;;;18.08;13.20;;;15.20;99.90;;;;;;4993712;28;20104;-87
2023/09/22 00:16:37;;;;;;;17.13;13.18;;;15.20;99.90;;;;;;4994012;28;20030;-87
2023/09/22 00:19:05;;;;;;;18.90;13.98;;;15.20;99.90;;;;;;4992706;28;20026;-84
2023/09/22 00:21:34;;;;;;;19.00;12.60;;;15.10;99.90;;;;;;4992907;28;20061;-86
2023/09/22 00:24:01;;;;;;;17.55;13.35;;;15.20;99.90;;;;;;4993835;28;20034;-89
2023/09/22 00:26:26;;;;;;;17.35;11.77;;;15.10;99.90;;;;;;4994511;28;20041;-86
2023/09/22 00:28:52;;;;;;;16.58;12.30;;;15.10;99.90;;;;;;4992647;28;20050;-85
2023/09/22 00:31:17;;;;;;;17.17;13.23;;;15.20;99.90;;;;;;4993874;28;20105;-85
2023/09/22 00:33:43;;;;;;;21.30;15.10;;;15.20;99.90;;;;;;4992790;28;20022;-85
2023/09/22 00:36:08;;;;;;;22.63;15.90;;;15.20;99.90;;;;;;4993577;28;20033;-85
2023/09/22 00:38:34;;;;;;;21.35;15.48;;;15.20;99.90;;;;;;4994489;28;20100;-87
2023/09/22 00:40:59;;;;;;;26.00;16.27;;;15.20;99.90;;;;;;5001108;28;20069;-85
2023/09/22 00:43:25;;;;;;;25.45;18.90;;;15.20;99.90;;;;;;4991798;28;20050;-87
2023/09/22 00:45:52;;;;;;;23.35;18.27;;;15.20;99.90;;;;;;4992871;28;20030;-87
2023/09/22 00:48:27;;;;;;;26.90;18.58;;;15.20;99.90;;;;;;4993349;28;20027;-84
2023/09/22 00:50:55;;;;;;;24.92;17.70;;;15.20;99.90;;;;;;4993197;28;20033;-87
2023/09/22 00:53:24;;;;;;;30.08;21.60;;;15.20;99.90;;;;;;4991756;28;20030;-86
2023/09/22 00:55:52;;;;;;;33.67;23.88;;;15.10;99.90;;;;;;4992940;28;20049;-87
2023/09/22 00:58:18;;;;;;;32.67;22.08;;;15.10;99.90;;;;;;4992990;28;20077;-83
2023/09/22 01:00:49;;;;;;;31.17;21.50;;;15.10;99.90;;;;;;4991486;28;20073;-86
2023/09/22 01:03:16;;;;;;;28.77;18.73;;;14.90;99.90;;;;;;4992882;28;20389;-87
2023/09/22 01:05:42;;;;;;;29.25;19.35;;;15.00;99.90;;;;;;4993734;28;20034;-84
2023/09/22 01:08:08;;;;;;;28.98;20.75;;;14.90;99.90;;;;;;4993152;28;20158;-86
2023/09/22 01:10:42;;;;;;;29.90;21.55;;;15.00;99.90;;;;;;4993176;28;20506;-88
2023/09/22 01:13:08;;;;;;;26.63;19.17;;;15.00;99.90;;;;;;4993186;28;20452;-86
2023/09/22 01:15:37;;;;;;;24.08;16.98;;;14.90;99.90;;;;;;4992465;28;20121;-84
2023/09/22 01:18:05;;;;;;;23.10;16.83;;;15.00;99.90;;;;;;4992036;28;20026;-87
2023/09/22 01:20:33;;;;;;;25.63;16.60;;;15.00;99.90;;;;;;4993030;28;20035;-84
2023/09/22 01:22:58;;;;;;;23.90;17.10;;;15.00;99.90;;;;;;4992597;28;20484;-87
2023/09/22 01:25:24;;;;;;;27.48;18.25;;;14.90;99.90;;;;;;4992770;28;20026;-87
2023/09/22 01:27:50;;;;;;;25.67;17.48;;;14.90;99.90;;;;;;4993195;28;20703;-89
2023/09/22 01:30:16;;;;;;;26.10;15.88;;;14.80;99.90;;;;;;4993607;28;20066;-85
2023/09/22 01:32:42;;;;;;;23.52;15.02;;;14.80;99.90;;;;;;4992451;28;20018;-89
2023/09/22 01:35:08;;;;;;;26.55;17.13;;;14.70;99.90;;;;;;4991619;28;20044;-86
2023/09/22 01:37:44;;;;;;;26.23;17.30;;;14.90;99.90;;;;;;5007451;28;20560;-88
2023/09/22 01:40:10;;;;;;;25.27;15.73;;;14.80;99.90;;;;;;4991311;28;20084;-85
2023/09/22 01:42:36;;;;;;;25.15;15.98;;;14.80;99.90;;;;;;4991321;28;20027;-85
2023/09/22 01:45:02;;;;;;;24.17;15.43;;;14.70;99.90;;;;;;4991194;28;20073;-86
2023/09/22 01:47:28;;;;;;;23.00;14.35;;;14.70;99.90;;;;;;4991578;28;20551;-90
2023/09/22 01:49:54;;;;;;;20.52;13.98;;;14.70;99.90;;;;;;4992411;28;20022;-84
2023/09/22 01:52:19;;;;;;;22.65;14.68;;;14.70;99.90;;;;;;4992430;28;20026;-84
2023/09/22 01:54:45;;;;;;;23.35;14.00;;;14.60;99.90;;;;;;4994204;28;20038;-84
2023/09/22 01:57:10;;;;;;;24.45;15.13;;;14.60;99.90;;;;;;4995597;28;20030;-85
2023/09/22 01:59:36;;;;;;;20.77;14.07;;;14.70;99.90;;;;;;4994041;28;20025;-83
2023/09/22 02:02:01;;;;;;;25.80;15.57;;;14.60;99.90;;;;;;4995359;28;20026;-84
2023/09/22 02:04:30;;;;;;;22.83;14.52;;;14.60;99.90;;;;;;4995717;28;20033;-84
2023/09/22 02:06:56;;;;;;;21.40;12.50;;;14.50;99.90;;;;;;4996143;28;20121;-85
2023/09/22 02:09:22;;;;;;;21.40;14.32;;;14.40;99.90;;;;;;4995061;28;20469;-84
2023/09/22 02:11:47;;;;;;;17.58;12.10;;;14.40;99.90;;;;;;4995835;28;20513;-86
2023/09/22 02:14:13;;;;;;;20.40;11.88;;;14.40;99.90;;;;;;4995330;28;20044;-84
2023/09/22 02:16:40;;;;;;;19.85;11.82;;;14.30;99.90;;;;;;4995371;28;20527;-84
2023/09/22 02:19:05;;;;;;;17.48;10.88;;;14.30;99.90;;;;;;4994012;28;20035;-85
2023/09/22 02:21:31;;;;;;;18.13;10.82;;;14.30;99.90;;;;;;4995726;28;20034;-85
2023/09/22 02:23:56;;;;;;;17.92;11.05;;;14.20;99.90;;;;;;4993987;28;20394;-85
2023/09/22 02:26:22;;;;;;;18.60;10.02;;;14.20;99.90;;;;;;4994469;28;20018;-86
2023/09/22 02:28:51;;;;;;;18.45;10.25;;;14.10;99.90;;;;;;4995181;28;20050;-85
2023/09/22 02:31:17;;;;;;;16.52;9.65;;;14.10;99.90;;;;;;4995640;28;20022;-84
2023/09/22 02:33:43;;;;;;;18.73;10.35;;;14.10;99.90;;;;;;4994836;28;20077;-84
2023/09/22 02:36:08;;;;;;;18.67;10.68;;;14.10;99.90;;;;;;4994996;28;20026;-86
2023/09/22 02:38:34;;;;;;;16.23;9.13;;;14.00;99.90;;;;;;4994787;28;20113;-85
2023/09/22 02:41:00;;;;;;;17.08;10.10;;;14.00;99.90;;;;;;4994913;28;20370;-84
2023/09/22 02:43:26;;;;;;;15.48;9.60;;;14.00;99.90;;;;;;4994022;28;20030;-84
2023/09/22 02:45:51;;;;;;;17.95;10.45;;;14.00;99.90;;;;;;4993770;28;20526;-85
2023/09/22 02:48:17;;;;;;;17.58;9.73;;;14.00;99.90;;;;;;4994801;28;20516;-84
2023/09/22 02:50:42;;;;;;;13.07;7.93;;;14.00;99.90;;;;;;4995044;28;20505;-84
2023/09/22 02:53:08;;;;;;;16.83;9.30;;;13.90;99.90;;;;;;4994889;28;20473;-84
2023/09/22 02:55:40;;;;;;;14.60;8.10;;;13.90;99.90;;;;;;4993948;28;20536;-82
2023/09/22 02:58:06;;;;;;;15.15;8.57;;;13.90;99.90;;;;;;4994832;28;20026;-83
2023/09/22 03:00:33;;;;;;;14.55;7.97;;;13.90;99.90;;;;;;4993330;28;20393;-83
2023/09/22 03:02:59;;;;;;;11.82;7.10;;;13.80;99.90;;;;;;4993282;28;20030;-83
2023/09/22 03:05:24;;;;;;;14.38;7.68;;;13.80;99.90;;;;;;4994221;28;20026;-83
2023/09/22 03:07:51;;;;;;;16.35;7.90;;;13.80;99.90;;;;;;4993243;28;20029;-85
2023/09/22 03:10:16;;;;;;;14.63;8.23;;;13.90;99.90;;;;;;4994298;28;20081;-84
2023/09/22 03:12:43;;;;;;;15.05;8.50;;;13.80;99.90;;;;;;4994262;28;20113;-83
2023/09/22 03:15:09;;;;;;;13.45;7.25;;;13.80;99.90;;;;;;4992779;28;20417;-86
2023/09/22 03:17:39;;;;;;;13.98;7.75;;;13.80;99.90;;;;;;4994620;28;20125;-83
2023/09/22 03:20:12;;;;;;;12.73;7.15;;;13.70;99.90;;;;;;4992715;28;20022;-82
2023/09/22 03:22:38;;;;;;;14.20;6.82;;;13.70;99.90;;;;;;4994295;28;20030;-84
2023/09/22 03:25:08;;;;;;;25.55;7.65;;;13.70;99.90;;;;;;4993688;28;20029;-83
2023/09/22 03:27:34;;;;;;;16.38;8.05;;;13.70;99.90;;;;;;4993772;28;20031;-84
2023/09/22 03:30:05;;;;;;;15.40;7.15;;;13.70;99.90;;;;;;4994011;28;20040;-84
2023/09/22 03:32:31;;;;;;;15.00;7.95;;;13.80;99.90;;;;;;4993068;28;20089;-87
2023/09/22 03:34:57;;;;;;;16.63;7.80;;;13.80;99.90;;;;;;4993858;28;20030;-86
2023/09/22 03:37:27;;;;;;;14.52;8.10;;;13.80;99.90;;;;;;4992599;28;20027;-83
2023/09/22 03:39:56;;;;;;;16.45;8.55;;;13.90;99.90;;;;;;4993027;28;20028;-84
2023/09/22 03:42:23;;;;;;;18.33;8.13;;;13.80;99.90;;;;;;4993780;28;20022;-83
2023/09/22 03:44:48;;;;;;;13.60;7.38;;;13.80;99.90;;;;;;4993657;28;20026;-84
2023/09/22 03:47:14;;;;;;;15.90;9.15;;;13.90;99.90;;;;;;4993789;28;20382;-84
2023/09/22 03:49:40;;;;;;;14.30;8.52;;;13.90;99.90;;;;;;4993677;28;20030;-82
2023/09/22 03:52:05;;;;;;;14.75;8.02;;;13.90;99.90;;;;;;4993436;28;20166;-83
2023/09/22 03:54:31;;;;;;;14.63;7.45;;;13.80;99.90;;;;;;4994002;28;20049;-85
2023/09/22 03:56:57;;;;;;;15.68;7.80;;;13.80;99.90;;;;;;4992241;28;20486;-83
2023/09/22 03:59:23;;;;;;;15.30;7.80;;;13.90;99.90;;;;;;4992331;28;20445;-84
2023/09/22 04:01:49;;;;;;;18.05;8.45;;;13.90;99.90;;;;;;4993327;28;20029;-84
2023/09/22 04:04:15;;;;;;;15.88;8.93;;;13.80;99.90;;;;;;4992177;28;20030;-84
2023/09/22 04:06:40;;;;;;;15.68;8.02;;;13.90;99.90;;;;;;4993262;28;20042;-85
2023/09/22 04:09:07;;;;;;;15.82;8.15;;;13.80;99.90;;;;;;4992085;28;20443;-84
2023/09/22 04:11:34;;;;;;;14.25;8.13;;;13.90;99.90;;;;;;4993541;28;20101;-84
2023/09/22 04:14:00;;;;;;;16.23;8.05;;;13.90;99.90;;;;;;4992050;28;20035;-83
2023/09/22 04:16:26;;;;;;;18.10;8.00;;;13.90;99.90;;;;;;4993084;28;20049;-84
2023/09/22 04:18:54;;;;;;;15.73;8.07;;;13.90;99.90;;;;;;4993076;28;20041;-84
2023/09/22 04:21:22;;;;;;;14.38;7.68;;;13.90;99.90;;;;;;4993068;28;20431;-87
2023/09/22 04:23:51;;;;;;;18.23;8.75;;;13.90;99.90;;;;;;4993111;28;20026;-84
2023/09/22 04:26:16;;;;;;;17.95;8.25;;;13.90;99.90;;;;;;4993106;28;20109;-83
2023/09/22 04:28:45;;;;;;;15.20;7.68;;;13.90;99.90;;;;;;4992734;28;20125;-85
2023/09/22 04:31:12;;;;;;;14.23;8.15;;;14.00;99.90;;;;;;4991484;28;20117;-86
2023/09/22 04:33:39;;;;;;;16.73;8.15;;;13.90;99.90;;;;;;4993104;28;20445;-85
2023/09/22 04:36:05;;;;;;;12.52;7.75;;;13.90;99.90;;;;;;4993352;28;20066;-85
2023/09/22 04:38:31;;;;;;;12.82;8.07;;;13.90;99.90;;;;;;4993827;28;20515;-86
2023/09/22 04:40:57;;;;;;;18.90;7.15;;;14.00;99.90;;;;;;4992563;28;20023;-87
2023/09/22 04:43:23;;;;;;;15.68;7.30;;;14.00;99.90;;;;;;4993898;28;20096;-87
2023/09/22 04:45:49;;;;;;;13.50;7.22;;;14.00;99.90;;;;;;4993444;28;20029;-90
2023/09/22 04:48:16;;;;;;;13.73;7.10;;;14.00;99.90;;;;;;4993847;28;20027;-88
2023/09/22 04:50:42;;;;;;;16.48;7.40;;;14.00;99.90;;;;;;4992088;28;20053;-84
2023/09/22 04:53:08;;;;;;;12.13;6.88;;;14.00;99.90;;;;;;4993033;28;20023;-89
2023/09/22 04:55:37;;;;;;;13.65;7.30;;;14.00;99.90;;;;;;4993148;28;20038;-86
2023/09/22 04:58:04;;;;;;;11.15;6.43;;;14.00;99.90;;;;;;5003640;28;20026;-89
2023/09/22 05:00:33;;;;;;;13.98;6.40;;;14.00;99.90;;;;;;5012726;28;20022;-87
2023/09/22 05:02:59;;;;;;;11.98;6.35;;;14.00;99.90;;;;;;5012343;28;20026;-86
2023/09/22 05:05:25;;;;;;;14.35;6.28;;;14.10;99.90;;;;;;5012001;28;20438;-86
2023/09/22 05:07:51;;;;;;;9.80;6.43;;;14.10;99.90;;;;;;5011044;28;20037;-87
2023/09/22 05:10:17;;;;;;;11.77;5.70;;;14.10;99.90;;;;;;5012892;28;20117;-85
2023/09/22 05:12:43;;;;;;;10.27;5.55;;;14.10;99.90;;;;;;5011113;28;20049;-87
2023/09/22 05:15:09;;;;;;;10.60;4.95;;;14.10;99.90;;;;;;5011070;28;20034;-86
2023/09/22 05:17:35;;;;;;;12.18;5.63;;;14.10;99.90;;;;;;5012217;28;20105;-88
2023/09/22 05:20:04;;;;;;;11.25;5.18;;;14.00;99.90;;;;;;5011105;28;20022;-86
2023/09/22 05:22:30;;;;;;;9.82;5.28;;;14.00;99.90;;;;;;5011699;28;20026;-87
2023/09/22 05:24:56;;;;;;;11.32;4.47;;;13.90;99.90;;;;;;5011550;28;20234;-87
2023/09/22 05:27:24;;;;;;;10.60;4.32;;;13.90;99.90;;;;;;5011740;28;20026;-89
2023/09/22 05:29:53;;;;;;;10.82;5.10;;;13.90;99.90;;;;;;5015887;28;20100;-87
2023/09/22 05:32:19;;;;;;;10.30;5.13;;;13.90;99.90;;;;;;5016071;28;20032;-89
2023/09/22 05:34:44;;;;;;;11.65;5.25;;;13.80;99.90;;;;;;5017770;28;20030;-90
2023/09/22 05:37:11;;;;;;;12.27;5.82;;;13.80;99.90;;;;;;5016779;28;20437;-89
2023/09/22 05:39:37;;;;;;;11.50;5.75;;;13.80;99.90;;;;;;5016582;28;20029;-87
2023/09/22 05:42:04;;;;;;;9.73;5.25;;;13.80;99.90;;;;;;5015439;28;20180;-85
2023/09/22 05:44:29;;;;;;;11.23;5.40;;;13.70;99.90;;;;;;5016241;28;20369;-84
2023/09/22 05:46:55;;;;;;;11.57;5.20;;;13.70;99.90;;;;;;5014888;28;20037;-87
2023/09/22 05:49:21;;;;;;;9.07;5.18;;;13.70;99.90;;;;;;5014939;28;20022;-87
2023/09/22 05:51:48;;;;;;;9.75;5.25;;;13.70;99.90;;;;;;5014806;28;20022;-87
2023/09/22 05:54:14;;;;;;;10.98;4.65;;;13.60;99.90;;;;;;5016226;28;20025;-88
2023/09/22 05:56:40;;;;;;;11.43;4.93;;;13.60;99.90;;;;;;5014918;28;20092;-83
2023/09/22 05:59:06;;;;;;;10.55;4.82;;;13.50;99.90;;;;;;5015258;28;20110;-84
2023/09/22 06:01:35;;;;;;;11.23;4.75;;;13.60;99.90;;;;;;5015524;28;20038;-86
2023/09/22 06:04:04;;;;;;;9.85;4.57;;;13.60;99.90;;;;;;5015476;28;20388;-85
2023/09/22 06:06:30;;;;;;;8.95;4.68;;;13.50;99.90;;;;;;5015395;28;20021;-84
2023/09/22 06:08:56;;;;;;;9.00;4.75;;;13.60;99.90;;;;;;5014785;28;20065;-84
2023/09/22 06:11:21;;;;;;;8.70;4.05;;;13.60;99.90;;;;;;5015470;28;20125;-82
2023/09/22 06:13:48;;;;;;;8.27;3.67;;;13.60;99.90;;;;;;5015277;28;20022;-84
2023/09/22 06:16:13;;;;;;;8.70;3.75;;;13.60;99.90;;;;;;5015217;28;20026;-86
2023/09/22 06:18:40;;;;;;;11.52;4.38;;;13.60;99.90;;;;;;5015324;28;20033;-85
2023/09/22 06:21:06;;;;;;;10.77;5.38;;;13.60;99.90;;;;;;5014792;28;20061;-84
2023/09/22 06:23:32;;;;;;;9.88;4.63;;;13.60;99.90;;;;;;5013923;28;20022;-86
2023/09/22 06:26:05;;;;;;;5.90;3.40;;;13.70;99.90;;;;;;5013829;28;20022;-86
2023/09/22 06:28:31;;;;;;;8.50;3.67;;;13.60;99.90;;;;;;5014541;28;20053;-82
2023/09/22 06:31:00;;;;;;;6.78;3.33;;;13.60;99.90;;;;;;4999455;28;20077;-86
2023/09/22 06:33:33;;;;;;;6.40;2.90;;;13.70;99.90;;;;;;5012196;28;20030;-85
2023/09/22 06:36:03;;;;;;;7.18;3.40;;;13.60;99.90;;;;;;5013219;28;20038;-86
2023/09/22 06:38:33;;;;;;;8.23;3.00;;;13.70;99.90;;;;;;5013212;28;20026;-85
2023/09/22 06:41:03;;;;;;;9.65;3.00;;;13.70;99.90;;;;;;5014399;28;20092;-86
2023/09/22 06:43:29;;;;;;;8.75;3.58;;;13.70;99.90;;;;;;5014819;28;20049;-87
2023/09/22 06:45:58;;;;;;;6.30;2.85;;;13.70;99.90;;;;;;5015043;28;20029;-85
2023/09/22 06:48:28;;;;;;;8.80;3.25;;;13.80;99.90;;;;;;5013335;28;20064;-84
2023/09/22 06:50:54;;;;;;;5.07;2.08;;;13.90;99.90;;;;;;5014279;28;20022;-85
2023/09/22 06:53:21;;;;;;;6.30;2.30;;;13.80;99.90;;;;;;5013235;28;20357;-82
2023/09/22 06:55:48;;;;;;;5.40;1.92;;;13.80;99.90;;;;;;5012944;28;20064;-86
2023/09/22 06:58:13;;;;;;;7.07;1.80;;;13.80;99.90;;;;;;5013950;28;20022;-84
2023/09/22 07:00:39;;;;;;;5.13;1.75;;;13.80;99.90;;;;;;5013006;28;20439;-87
2023/09/22 07:03:05;;;;;;;5.43;1.90;;;13.90;99.90;;;;;;5012860;28;20022;-82
2023/09/22 07:05:31;;;;;;;4.47;1.35;;;13.80;99.90;;;;;;5014110;28;20034;-82
2023/09/22 07:07:57;;;;;;;6.65;1.88;;;13.80;99.90;;;;;;5014391;28;20033;-85
2023/09/22 07:10:24;;;;;;;4.75;1.30;;;13.80;99.90;;;;;;5015213;28;20018;-88
2023/09/22 07:12:51;;;;;;;5.53;1.92;;;14.10;99.90;;;;;;5013532;28;20034;-87
2023/09/22 07:15:17;;;;;;;6.30;2.72;;;13.90;99.90;;;;;;5015085;28;20048;-83
2023/09/22 07:17:43;;;;;;;4.68;1.40;;;14.00;99.90;;;;;;5014258;28;20062;-87
2023/09/22 07:20:12;;;;;;;6.15;1.80;;;14.10;99.90;;;;;;5014389;28;20455;-85
2023/09/22 07:22:38;;;;;;;5.55;1.70;;;14.10;99.90;;;;;;5014382;28;20029;-83
2023/09/22 07:25:04;;;;;;;8.82;2.15;;;14.20;99.90;;;;;;5014599;28;20045;-84
2023/09/22 07:27:29;;;;;;;3.53;1.25;;;14.20;99.90;;;;;;5013300;28;20113;-87
2023/09/22 07:29:55;;;;;;;4.65;1.13;;;14.30;99.90;;;;;;5014085;28;20092;-87
2023/09/22 07:32:21;;;;;;;4.63;1.20;;;14.30;99.90;;;;;;5014554;28;20036;-83
2023/09/22 07:34:49;;;;;;;3.72;1.10;;;14.30;99.90;;;;;;5014474;28;20034;-88
2023/09/22 07:37:17;;;;;;;2.45;0.90;;;14.40;99.90;;;;;;5014498;28;20021;-84
2023/09/22 07:39:43;;;;;;;5.88;1.30;;;14.40;99.90;;;;;;5014295;28;20112;-86
2023/09/22 07:42:09;;;;;;;4.97;1.10;;;14.40;99.90;;;;;;5013993;28;20084;-83
2023/09/22 07:44:38;;;;;;;3.88;1.20;;;14.50;99.90;;;;;;5014421;28;20036;-85
2023/09/22 07:47:10;;;;;;;6.93;1.27;;;14.50;99.90;;;;;;5014108;28;20034;-87
2023/09/22 07:49:40;;;;;;;2.58;0.90;;;14.60;99.90;;;;;;5013919;28;20499;-84
2023/09/22 07:52:10;;;;;;;3.83;1.48;;;14.60;99.90;;;;;;5013118;28;20551;-84
2023/09/22 07:54:38;;;;;;;2.13;0.90;;;14.70;99.90;;;;;;5013775;28;20042;-83
2023/09/22 07:57:04;;;;;;;2.58;0.88;;;14.70;99.90;;;;;;5013965;28;20022;-81
2023/09/22 07:59:30;;;;;;;3.95;1.23;;;14.80;99.90;;;;;;5012371;28;20025;-84
2023/09/22 08:01:59;;;;;;;4.50;0.90;;;14.80;99.90;;;;;;5012825;28;20017;-84
2023/09/22 08:04:25;;;;;;;3.08;1.10;;;15.00;99.90;;;;;;5012289;28;20021;-85
2023/09/22 08:06:50;;;;;;;2.67;0.80;;;14.90;99.90;;;;;;5014134;28;20026;-85
2023/09/22 08:09:16;;;;;;;3.65;0.98;;;14.90;99.90;;;;;;5013973;28;20506;-87
2023/09/22 08:11:42;;;;;;;4.65;0.95;;;14.90;99.90;;;;;;5013286;28;20044;-84
2023/09/22 08:14:07;;;;;;;2.58;0.55;;;15.00;99.90;;;;;;5014787;28;20040;-87
2023/09/22 08:16:33;;;;;;;2.55;0.60;;;15.00;99.90;;;;;;5014486;28;20026;-86
2023/09/22 08:18:58;;;;;;;5.18;1.02;;;15.00;99.90;;;;;;5013313;28;20026;-81
2023/09/22 08:21:25;;;;;;;3.42;0.70;;;15.00;99.90;;;;;;5014125;28;20029;-83
2023/09/22 08:23:51;;;;;;;1.90;0.70;;;15.00;99.90;;;;;;5014594;28;20090;-83
2023/09/22 08:26:17;;;;;;;2.60;0.80;;;15.20;99.90;;;;;;5012746;28;20061;-82
2023/09/22 08:28:47;;;;;;;3.10;0.82;;;15.10;99.90;;;;;;5012413;28;20045;-83
2023/09/22 08:31:13;;;;;;;2.67;0.70;;;15.10;99.90;;;;;;5014039;28;20022;-86
2023/09/22 08:33:39;;;;;;;1.35;0.40;;;15.10;99.90;;;;;;5012457;28;20026;-85
2023/09/22 08:36:05;;;;;;;4.85;0.75;;;15.20;99.90;;;;;;5013632;28;20046;-87
2023/09/22 08:38:34;;;;;;;1.23;0.50;;;15.20;99.90;;;;;;5013435;28;20025;-82
2023/09/22 08:41:03;;;;;;;3.90;0.50;;;15.30;99.90;;;;;;5011686;28;20024;-85
2023/09/22 08:43:32;;;;;;;3.47;0.55;;;15.50;99.90;;;;;;5013361;28;20030;-89
2023/09/22 08:46:00;;;;;;;2.95;0.80;;;15.50;99.90;;;;;;5013042;28;20026;-86
2023/09/22 08:48:26;;;;;;;1.60;0.70;;;15.60;99.90;;;;;;5011911;28;20026;-87
2023/09/22 08:50:51;;;;;;;4.03;0.60;;;15.60;99.90;;;;;;5011585;28;20053;-85
2023/09/22 08:53:17;;;;;;;1.17;0.38;;;15.70;99.90;;;;;;5011803;28;20026;-84
2023/09/22 08:55:43;;;;;;;3.10;0.50;;;15.70;99.90;;;;;;5012559;28;20157;-88
2023/09/22 08:58:09;;;;;;;1.48;0.50;;;15.80;99.70;;;;;;5013259;28;20508;-86
2023/09/22 09:00:35;;;;;;;2.22;0.40;;;15.80;99.50;;;;;;5012541;28;20113;-87
2023/09/22 09:03:09;;;;;;;1.98;0.38;;;16.00;99.10;;;;;;5013533;28;20112;-84
2023/09/22 09:05:36;;;;;;;4.03;0.45;;;15.90;98.90;;;;;;5015838;28;20022;-87
2023/09/22 09:08:15;;;;;;;1.17;0.30;;;15.90;98.80;;;;;;5015270;28;20534;-88
2023/09/22 09:10:42;;;;;;;2.58;0.40;;;16.00;98.60;;;;;;5016335;28;20388;-84
2023/09/22 09:13:13;;;;;;;2.55;0.50;;;16.00;98.40;;;;;;5015671;28;20026;-87
2023/09/22 09:15:45;;;;;;;1.50;0.35;;;16.00;97.90;;;;;;5016442;28;20034;-85
2023/09/22 09:18:13;;;;;;;1.10;0.35;;;16.20;98.00;;;;;;5016687;28;20057;-85
2023/09/22 09:20:40;;;;;;;1.98;0.40;;;16.20;97.60;;;;;;5015462;28;20018;-85
2023/09/22 09:23:19;;;;;;;1.33;0.30;;;16.30;97.40;;;;;;5015058;28;20105;-87
2023/09/22 09:25:49;;;;;;;2.40;0.30;;;16.30;97.20;;;;;;5015363;28;20060;-90
2023/09/22 09:28:17;;;;;;;0.82;0.40;;;16.40;96.80;;;;;;5015906;28;20546;-86
2023/09/22 09:30:59;;;;;;;1.80;0.38;;;16.50;96.80;;;;;;5015165;28;20034;-83
2023/09/22 09:33:25;;;;;;;0.80;0.30;;;16.50;96.50;;;;;;5015534;28;20018;-89
2023/09/22 09:35:51;;;;;;;2.40;0.50;;;16.50;96.30;;;;;;5015250;28;20030;-84
2023/09/22 09:38:18;;;;;;;1.70;0.50;;;16.50;95.60;;;;;;5015079;28;20047;-85
2023/09/22 09:40:45;;;;;;;2.63;0.50;;;16.50;95.50;;;;;;5017558;28;20032;-85
2023/09/22 09:43:14;;;;;;;1.92;0.30;;;16.30;94.80;;;;;;5016151;28;20164;-88
2023/09/22 09:45:43;;;;;;;2.30;0.50;;;16.40;94.40;;;;;;5016484;28;20026;-87
2023/09/22 09:48:16;;;;;;;1.30;0.30;;;16.30;94.40;;;;;;5015771;28;20029;-87
2023/09/22 09:50:45;;;;;;;1.05;0.38;;;16.40;94.40;;;;;;5015283;28;20029;-85
2023/09/22 09:53:22;;;;;;;2.70;0.50;;;16.30;94.60;;;;;;5016181;28;20029;-88
2023/09/22 09:55:49;;;;;;;2.72;0.40;;;16.40;94.50;;;;;;5015705;28;20088;-86
2023/09/22 09:58:16;;;;;;;1.80;0.47;;;16.70;94.30;;;;;;5015678;28;20395;-85
2023/09/22 10:00:43;;;;;;;1.95;0.30;;;16.80;94.20;;;;;;5014359;28;20041;-85
2023/09/22 10:03:12;;;;;;;2.25;0.28;;;16.90;93.80;;;;;;5015641;28;20026;-86
2023/09/22 10:05:39;;;;;;;0.73;0.30;;;17.10;93.60;;;;;;5014207;28;20068;-88
2023/09/22 10:08:06;;;;;;;3.08;0.50;;;17.40;93.00;;;;;;5015270;28;20025;-85
2023/09/22 10:10:35;;;;;;;1.45;0.35;;;17.60;92.10;;;;;;5014229;28;20116;-88
2023/09/22 10:13:01;;;;;;;1.00;0.30;;;17.80;92.00;;;;;;5015576;28;20036;-87
2023/09/22 10:15:52;;;;;;;2.67;0.40;;;17.90;91.50;;;;;;5014369;28;20037;-84
2023/09/22 10:18:18;;;;;;;0.93;0.30;;;17.90;90.80;;;;;;5013971;28;20369;-87
2023/09/22 10:20:45;;;;;;;1.95;0.25;;;17.90;90.80;;;;;;5014378;28;20026;-88
2023/09/22 10:23:25;;;;;;;0.85;0.20;;;17.90;90.70;;;;;;5014110;28;20018;-85
2023/09/22 10:26:17;;;;;;;0.93;0.40;;;17.90;90.90;;;;;;5014372;28;20030;-87
2023/09/22 10:28:43;;;;;;;2.15;0.30;;;18.10;90.60;;;;;;5014632;28;20046;-85
2023/09/22 10:31:09;;;;;;;0.88;0.30;;;18.40;90.40;;;;;;5014580;28;20024;-88
2023/09/22 10:33:35;;;;;;;1.55;0.28;;;18.60;90.20;;;;;;5015768;28;20476;-87
2023/09/22 10:36:01;;;;;;;0.80;0.20;;;18.80;90.00;;;;;;5014179;28;20040;-86
2023/09/22 10:38:27;;;;;;;3.38;0.40;;;19.00;89.40;;;;;;5015252;28;20381;-85
2023/09/22 10:41:02;;;;;;;0.95;0.20;;;19.20;88.70;;;;;;5014238;28;20026;-83
2023/09/22 10:43:30;;;;;;;0.98;0.20;;;19.50;86.90;;;;;;5015874;28;20041;-87
2023/09/22 10:45:55;;;;;;;1.27;0.20;;;19.70;85.40;;;;;;5013834;28;20392;-83
2023/09/22 10:48:21;;;;;;;1.35;0.38;;;19.90;84.90;;;;;;5014512;28;20022;-88
2023/09/22 10:50:51;;;;;;;1.52;0.32;;;20.10;83.70;;;;;;5015102;28;20104;-85
2023/09/22 10:53:17;;;;;;;1.60;0.30;;;20.20;82.50;;;;;;5013340;28;20022;-86
2023/09/22 10:55:45;;;;;;;1.38;0.30;;;20.40;82.10;;;;;;5014364;28;20037;-86
2023/09/22 10:58:14;;;;;;;0.90;0.30;;;20.60;81.50;;;;;;5014482;28;20108;-88
2023/09/22 11:00:53;;;;;;;0.90;0.22;;;20.80;80.00;;;;;;5014935;28;20026;-85
2023/09/22 11:03:19;;;;;;;1.83;0.30;;;21.00;79.30;;;;;;5013516;28;20117;-86
2023/09/22 11:05:55;;;;;;;0.93;0.28;;;21.20;78.30;;;;;;5014247;28;20072;-88
2023/09/22 11:08:20;;;;;;;1.55;0.43;;;21.30;76.50;;;;;;5014063;28;20040;-84
2023/09/22 11:10:55;;;;;;;1.23;0.30;;;21.20;76.00;;;;;;5014699;28;20384;-86
2023/09/22 11:13:21;;;;;;;5.45;0.38;;;21.20;75.90;;;;;;5014438;28;20038;-88
2023/09/22 11:16:02;;;;;;;2.15;0.20;;;21.30;75.40;;;;;;5013256;28;20030;-90
2023/09/22 11:18:31;;;;;;;0.65;0.20;;;21.60;74.50;;;;;;5014952;28;20022;-89
2023/09/22 11:21:05;;;;;;;1.05;0.30;;;21.70;74.10;;;;;;5014111;28;20034;-87
2023/09/22 11:23:31;;;;;;;;;;;22.00;72.20;;;;;;5014863;28;20026;-88
2023/09/22 11:26:10;;;;;;;0.93;0.30;;;22.00;72.00;;;;;;5017433;28;20279;-86
2023/09/22 11:28:45;;;;;;;1.27;0.30;;;21.70;72.70;;;;;;5013498;28;20049;-90
2023/09/22 11:31:15;;;;;;;2.10;0.32;;;21.80;72.60;;;;;;5012859;28;20473;-88
2023/09/22 11:33:42;;;;;;;0.73;0.10;;;22.00;72.50;;;;;;5013247;28;20022;-87
2023/09/22 11:36:09;;;;;;;2.65;0.25;;;22.20;72.60;;;;;;5013946;28;20042;-88
2023/09/22 11:38:39;;;;;;;1.60;0.20;;;22.40;72.00;;;;;;5014042;28;20026;-87
2023/09/22 11:41:14;;;;;;;0.98;0.15;;;22.60;71.30;;;;;;5014291;28;20026;-86
2023/09/22 11:43:42;;;;;;;2.05;0.20;;;22.80;70.00;;;;;;5013805;28;20068;-88
2023/09/22 11:46:15;;;;;;;1.33;0.20;;;23.00;69.00;;;;;;5013752;28;20472;-87
2023/09/22 11:49:00;;;;;;;0.75;0.20;;;23.20;67.50;;;;;;5013770;28;20488;-89
2023/09/22 11:51:51;;;;;;;1.35;0.20;;;23.40;66.80;;;;;;5014010;28;20129;-87
2023/09/22 11:54:21;;;;;;;2.80;0.30;;;23.60;66.10;;;;;;5012660;28;20033;-87
2023/09/22 11:56:48;;;;;;;1.75;0.30;;;23.70;66.00;;;;;;5012141;28;20091;-86
2023/09/22 11:59:22;;;;;;;1.25;0.30;;;23.90;66.00;;;;;;5013619;28;20026;-88
2023/09/22 12:01:49;;;;;;;1.88;0.32;;;24.00;65.30;;;;;;5012360;28;20028;-86
2023/09/22 12:04:16;;;;;;;1.55;0.25;;;24.10;65.40;;;;;;5013041;28;20026;-87
2023/09/22 12:06:41;;;;;;;0.75;0.30;;;24.30;64.40;;;;;;5013517;28;20029;-89
2023/09/22 12:09:12;;;;;;;2.50;0.50;;;24.30;63.80;;;;;;5012045;28;20025;-87
2023/09/22 12:11:39;;;;;;;2.45;0.22;;;24.30;63.20;;;;;;5013032;28;20563;-88
2023/09/22 12:14:05;;;;;;;1.02;0.25;;;24.20;63.00;;;;;;5012239;28;20040;-87
2023/09/22 12:16:31;;;;;;;1.40;0.30;;;24.10;62.60;;;;;;5012108;28;20026;-87
2023/09/22 12:18:57;;;;;;;1.35;0.30;;;23.90;62.90;;;;;;5013328;28;20037;-86
2023/09/22 12:21:25;;;;;;;1.15;0.20;;;24.10;62.70;;;;;;5012104;28;20049;-89
2023/09/22 12:23:50;;;;;;;1.58;0.38;;;24.20;62.40;;;;;;5013498;28;20026;-88
2023/09/22 12:26:16;;;;;;;2.55;0.20;;;24.30;62.30;;;;;;5013523;28;20030;-90
2023/09/22 12:28:42;;;;;;;1.85;0.30;;;24.40;62.10;;;;;;5014103;28;20073;-89
2023/09/22 12:31:08;;;;;;;2.42;0.50;;;24.50;61.70;;;;;;5014633;28;20113;-88
2023/09/22 12:33:33;;;;;;;4.45;0.30;;;24.40;61.30;;;;;;5013285;28;20080;-89
2023/09/22 12:35:59;;;;;;;2.22;0.35;;;24.40;61.30;;;;;;5013640;28;20033;-86
2023/09/22 12:38:25;;;;;;;1.13;0.30;;;24.40;61.40;;;;;;5011749;28;20041;-89
2023/09/22 12:40:51;;;;;;;1.20;0.35;;;24.70;61.50;;;;;;5013077;28;20056;-88
2023/09/22 12:43:17;;;;;;;0.98;0.30;;;25.00;61.40;;;;;;5012138;28;20062;-89